createdAt,value
2018-04-29T00:00:14.591Z,17.23
2018-04-29T00:02:42.874Z,17.10
2018-04-29T00:05:10.418Z,16.20
2018-04-29T00:07:39.250Z,16.17
2018-04-29T00:10:06.767Z,16.57
2018-04-29T00:12:35.046Z,16.03
2018-04-29T00:15:03.359Z,15.73
2018-04-29T00:17:30.876Z,16.30
2018-04-29T00:19:58.404Z,15.07
2018-04-29T00:22:25.987Z,16.73
2018-04-29T00:24:54.082Z,16.42
2018-04-29T00:27:22.358Z,17.50
2018-04-29T00:29:49.990Z,15.40
2018-04-29T00:32:17.507Z,15.88
2018-04-29T00:34:45.019Z,16.33
2018-04-29T00:37:14.271Z,14.70
2018-04-29T00:39:41.789Z,16.50
2018-04-29T00:42:10.088Z,16.00
2018-04-29T00:44:37.735Z,16.50
2018-04-29T00:47:05.268Z,16.53
2018-04-29T00:49:33.550Z,17.45
2018-04-29T00:52:07.395Z,15.27
2018-04-29T00:54:34.910Z,14.70
2018-04-29T00:57:03.203Z,16.40
2018-04-29T00:59:31.503Z,14.57
2018-04-29T01:01:59.019Z,15.73
2018-04-29T01:04:26.539Z,15.45
2018-04-29T01:06:54.115Z,16.23
2018-04-29T01:09:21.670Z,15.70
2018-04-29T01:11:49.945Z,15.73
2018-04-29T01:14:17.987Z,15.87
2018-04-29T01:16:45.517Z,16.10
2018-04-29T01:19:15.369Z,16.48
2018-04-29T01:21:42.927Z,16.17
2018-04-29T01:24:10.446Z,16.15
2018-04-29T01:26:38.621Z,16.83
2018-04-29T01:29:06.947Z,16.93
2018-04-29T01:31:34.462Z,17.17
2018-04-29T01:34:02.013Z,18.00
2018-04-29T01:36:30.355Z,17.33
2018-04-29T01:38:57.876Z,16.37
2018-04-29T01:41:25.422Z,17.42
2018-04-29T01:43:52.993Z,17.57
2018-04-29T01:46:20.547Z,17.22
2018-04-29T01:48:48.067Z,17.80
2018-04-29T01:51:17.339Z,18.25
2018-04-29T01:53:44.860Z,17.80
2018-04-29T01:56:12.393Z,17.90
2018-04-29T01:58:41.318Z,17.37
2018-04-29T02:01:08.890Z,16.57
2018-04-29T02:03:36.424Z,16.77
2018-04-29T02:06:03.977Z,16.67
2018-04-29T02:08:31.510Z,16.73
2018-04-29T02:10:59.802Z,16.10
2018-04-29T02:13:28.114Z,16.80
2018-04-29T02:15:55.634Z,16.83
2018-04-29T02:18:23.955Z,16.27
2018-04-29T02:20:51.539Z,16.75
2018-04-29T02:23:19.061Z,17.40
2018-04-29T02:25:46.578Z,18.43
2018-04-29T02:28:25.739Z,17.67
2018-04-29T02:33:46.794Z,19.93
2018-04-29T02:36:26.583Z,18.85
2018-04-29T02:41:30.164Z,20.07
2018-04-29T02:43:57.701Z,19.17
2018-04-29T02:46:25.234Z,19.00
2018-04-29T02:48:52.839Z,19.93
2018-04-29T02:51:20.350Z,18.20
2018-04-29T02:53:48.639Z,18.57
2018-04-29T02:56:16.648Z,17.05
2018-04-29T02:58:44.189Z,18.73
2018-04-29T03:01:11.715Z,17.23
2018-04-29T03:03:40.750Z,16.83
2018-04-29T03:06:08.275Z,17.27
2018-04-29T03:08:35.820Z,16.83
2018-04-29T03:11:03.400Z,17.73
2018-04-29T03:13:30.922Z,16.60
2018-04-29T03:15:58.857Z,17.17
2018-04-29T03:18:26.395Z,16.57
2018-04-29T03:20:54.681Z,16.93
2018-04-29T03:23:22.198Z,16.43
2018-04-29T03:25:50.534Z,16.52
2018-04-29T03:28:18.384Z,15.83
2018-04-29T03:30:45.895Z,16.00
2018-04-29T03:33:24.433Z,14.90
2018-04-29T03:39:13.331Z,16.10
2018-04-29T03:41:40.848Z,16.43
2018-04-29T03:44:09.363Z,14.52
2018-04-29T03:46:37.551Z,16.90
2018-04-29T03:49:05.075Z,16.23
2018-04-29T03:51:33.379Z,16.65
2018-04-29T03:54:00.927Z,16.33
2018-04-29T03:56:28.470Z,16.40
2018-04-29T03:59:08.496Z,15.80
2018-04-29T04:01:51.286Z,14.73
2018-04-29T04:04:17.188Z,16.02
2018-04-29T04:06:44.706Z,14.53
2018-04-29T04:09:12.223Z,14.20
2018-04-29T04:11:39.779Z,14.53
2018-04-29T04:14:07.302Z,14.70
2018-04-29T04:16:34.822Z,15.77
2018-04-29T04:19:02.396Z,14.50
2018-04-29T04:21:30.696Z,14.10
2018-04-29T04:23:58.212Z,14.77
2018-04-29T04:26:26.443Z,16.23
2018-04-29T04:28:54.671Z,15.90
2018-04-29T04:31:22.974Z,16.10
2018-04-29T04:33:50.547Z,15.85
2018-04-29T04:36:18.063Z,15.20
2018-04-29T04:38:46.365Z,14.60
2018-04-29T04:41:16.613Z,14.25
2018-04-29T04:43:44.126Z,13.37
2018-04-29T04:46:12.430Z,14.87
2018-04-29T04:48:40.042Z,15.63
2018-04-29T04:51:07.585Z,15.23
2018-04-29T04:53:35.115Z,14.40
2018-04-29T04:56:02.684Z,15.17
2018-04-29T04:58:30.199Z,14.57
2018-04-29T05:00:58.496Z,15.63
2018-04-29T05:03:26.077Z,15.03
2018-04-29T05:05:53.605Z,14.93
2018-04-29T05:08:21.938Z,14.43
2018-04-29T05:10:50.206Z,14.23
2018-04-29T05:13:18.494Z,14.20
2018-04-29T05:15:46.040Z,14.80
2018-04-29T05:18:15.438Z,14.13
2018-04-29T05:20:42.966Z,14.77
2018-04-29T05:23:10.534Z,13.97
2018-04-29T05:25:38.116Z,13.77
2018-04-29T05:28:05.643Z,14.20
2018-04-29T05:30:33.507Z,13.90
2018-04-29T05:33:01.110Z,13.83
2018-04-29T05:35:28.665Z,14.17
2018-04-29T05:37:56.170Z,13.23
2018-04-29T05:40:24.475Z,12.07
2018-04-29T05:42:51.999Z,12.00
2018-04-29T05:45:19.518Z,13.20
2018-04-29T05:47:47.097Z,12.87
2018-04-29T05:50:26.132Z,13.73
2018-04-29T05:55:24.011Z,13.50
2018-04-29T05:57:51.546Z,13.50
2018-04-29T06:00:19.854Z,14.10
2018-04-29T06:02:48.349Z,12.37
2018-04-29T06:05:16.516Z,11.80
2018-04-29T06:07:44.812Z,13.77
2018-04-29T06:10:12.389Z,12.13
2018-04-29T06:12:39.918Z,11.00
2018-04-29T06:15:07.434Z,13.20
2018-04-29T06:17:36.106Z,11.90
2018-04-29T06:20:03.624Z,10.90
2018-04-29T06:22:31.158Z,11.07
2018-04-29T06:24:58.708Z,10.80
2018-04-29T06:27:26.251Z,11.40
2018-04-29T06:29:53.771Z,10.50
2018-04-29T06:32:22.255Z,9.95
2018-04-29T06:34:49.860Z,9.43
2018-04-29T06:37:17.411Z,8.93
2018-04-29T06:39:45.670Z,9.47
2018-04-29T06:42:25.207Z,9.57
2018-04-29T06:45:48.463Z,8.23
2018-04-29T06:48:16.457Z,9.70
2018-04-29T06:50:43.975Z,8.43
2018-04-29T06:53:11.644Z,9.10
2018-04-29T06:55:39.287Z,8.37
2018-04-29T06:58:06.893Z,8.23
2018-04-29T07:00:34.611Z,7.73
2018-04-29T07:03:03.391Z,9.60
2018-04-29T07:05:31.706Z,9.00
2018-04-29T07:07:59.467Z,9.00
2018-04-29T07:10:27.045Z,8.50
2018-04-29T07:12:54.615Z,8.70
2018-04-29T07:15:22.229Z,8.75
2018-04-29T07:17:49.796Z,8.57
2018-04-29T07:20:18.072Z,7.60
2018-04-29T07:22:46.166Z,8.77
2018-04-29T07:25:23.815Z,8.30
2018-04-29T07:33:54.244Z,8.90
2018-04-29T07:36:23.830Z,8.21
2018-04-29T07:38:52.188Z,7.20
2018-04-29T07:41:19.817Z,7.70
2018-04-29T07:43:48.103Z,7.57
2018-04-29T07:46:17.283Z,7.80
2018-04-29T07:48:44.779Z,7.27
2018-04-29T07:51:12.295Z,7.27
2018-04-29T07:53:40.620Z,6.60
2018-04-29T07:56:08.368Z,7.10
2018-04-29T07:58:35.881Z,8.03
2018-04-29T08:01:03.399Z,7.20
2018-04-29T08:03:30.970Z,7.40
2018-04-29T08:05:58.483Z,7.80
2018-04-29T08:08:26.020Z,7.55
2018-04-29T08:10:53.580Z,8.13
2018-04-29T08:13:21.096Z,6.90
2018-04-29T08:15:48.726Z,6.50
2018-04-29T08:18:17.627Z,7.00
2018-04-29T08:20:45.148Z,6.77
2018-04-29T08:23:13.595Z,6.10
2018-04-29T08:25:41.183Z,6.83
2018-04-29T08:28:08.719Z,6.40
2018-04-29T08:30:36.244Z,7.43
2018-04-29T08:33:03.806Z,6.10
2018-04-29T08:35:31.917Z,6.60
2018-04-29T08:37:59.452Z,6.80
2018-04-29T08:40:27.008Z,6.00
2018-04-29T08:42:54.539Z,6.15
2018-04-29T08:45:23.224Z,7.07
2018-04-29T08:47:51.725Z,6.17
2018-04-29T08:50:20.115Z,7.28
2018-04-29T08:52:48.403Z,6.33
2018-04-29T08:55:16.511Z,6.53
2018-04-29T08:57:44.043Z,6.10
2018-04-29T09:00:13.059Z,5.53
2018-04-29T09:02:41.362Z,5.53
2018-04-29T09:05:09.671Z,5.33
2018-04-29T09:07:37.272Z,5.05
2018-04-29T09:10:04.924Z,5.30
2018-04-29T09:12:32.448Z,4.80
2018-04-29T09:14:59.979Z,4.67
2018-04-29T09:17:29.093Z,4.37
2018-04-29T09:19:56.623Z,4.53
2018-04-29T09:22:24.913Z,4.50
2018-04-29T09:24:52.471Z,4.30
2018-04-29T09:27:20.005Z,4.65
2018-04-29T09:29:48.283Z,4.50
2018-04-29T09:32:17.509Z,4.90
2018-04-29T09:34:45.095Z,5.20
2018-04-29T09:37:13.436Z,5.00
2018-04-29T09:39:41.124Z,5.00
2018-04-29T09:42:08.677Z,5.00
2018-04-29T09:44:36.949Z,5.17
2018-04-29T09:47:04.495Z,4.65
2018-04-29T09:49:32.143Z,5.03
2018-04-29T09:51:59.658Z,5.50
2018-04-29T09:54:28.092Z,4.60
2018-04-29T09:56:55.615Z,4.30
2018-04-29T09:59:23.131Z,4.33
2018-04-29T10:01:54.178Z,4.80
2018-04-29T10:04:21.741Z,5.10
2018-04-29T10:06:49.263Z,5.10
2018-04-29T10:09:16.926Z,6.00
2018-04-29T10:11:44.463Z,4.70
2018-04-29T10:14:13.799Z,4.90
2018-04-29T10:16:42.191Z,5.67
2018-04-29T10:19:09.716Z,6.77
2018-04-29T10:21:38.931Z,5.77
2018-04-29T10:24:06.498Z,5.23
2018-04-29T10:26:34.042Z,6.83
2018-04-29T10:29:01.621Z,5.70
2018-04-29T10:31:29.908Z,6.30
2018-04-29T10:33:57.447Z,5.82
2018-04-29T10:36:24.972Z,5.37
2018-04-29T10:38:54.025Z,6.70
2018-04-29T10:41:21.575Z,5.60
2018-04-29T10:43:49.095Z,5.80
2018-04-29T10:46:17.733Z,6.93
2018-04-29T10:48:45.324Z,5.17
2018-04-29T10:51:25.010Z,5.82
2018-04-29T11:00:30.514Z,6.30
2018-04-29T11:02:58.161Z,7.97
2018-04-29T11:05:25.803Z,6.50
2018-04-29T11:07:53.563Z,6.70
2018-04-29T11:10:21.142Z,6.23
2018-04-29T11:12:48.925Z,6.37
2018-04-29T11:15:17.843Z,6.14
2018-04-29T11:17:45.452Z,7.53
2018-04-29T11:20:14.730Z,7.32
2018-04-29T11:22:43.201Z,6.00
2018-04-29T11:25:10.835Z,5.73
2018-04-29T11:27:38.564Z,5.23
2018-04-29T11:30:06.242Z,5.80
2018-04-29T11:32:33.865Z,5.43
2018-04-29T11:35:01.515Z,5.13
2018-04-29T11:37:29.160Z,5.30
2018-04-29T11:39:57.912Z,5.25
2018-04-29T11:42:25.440Z,5.73
2018-04-29T11:44:58.231Z,5.33
2018-04-29T11:47:26.241Z,6.40
2018-04-29T11:49:53.827Z,5.07
2018-04-29T11:52:22.219Z,6.88
2018-04-29T11:54:49.856Z,5.90
2018-04-29T11:57:22.521Z,6.80
2018-04-29T12:00:07.091Z,7.60
2018-04-29T12:02:34.691Z,6.40
2018-04-29T12:05:02.315Z,6.17
2018-04-29T12:07:30.895Z,6.80
2018-04-29T12:10:00.403Z,6.80
2018-04-29T12:12:28.046Z,5.30
2018-04-29T12:14:55.727Z,6.80
2018-04-29T12:17:23.454Z,5.33
2018-04-29T12:19:51.015Z,5.20
2018-04-29T12:22:18.653Z,5.35
2018-04-29T12:24:46.232Z,4.23
2018-04-29T12:27:17.251Z,5.55
2018-04-29T12:29:44.864Z,6.03
2018-04-29T12:32:12.479Z,5.73
2018-04-29T12:34:40.869Z,5.60
2018-04-29T12:37:08.527Z,5.90
2018-04-29T12:39:36.101Z,4.53
2018-04-29T12:42:04.625Z,5.40
2018-04-29T12:44:32.243Z,5.30
2018-04-29T12:46:59.875Z,5.43
2018-04-29T12:49:27.439Z,4.68
2018-04-29T12:51:55.153Z,4.70
2018-04-29T12:54:22.822Z,5.60
2018-04-29T12:56:50.530Z,4.93
2018-04-29T12:59:19.383Z,4.90
2018-04-29T13:05:22.660Z,5.87
2018-04-29T13:07:50.253Z,5.17
2018-04-29T13:10:20.681Z,4.90
2018-04-29T13:12:48.477Z,5.53
2018-04-29T13:15:16.661Z,5.13
2018-04-29T13:17:45.091Z,5.30
2018-04-29T13:20:12.866Z,5.03
2018-04-29T13:22:40.507Z,6.00
2018-04-29T13:25:08.193Z,4.87
2018-04-29T13:27:36.248Z,4.67
2018-04-29T13:30:05.393Z,6.00
2018-04-29T13:32:33.017Z,5.07
2018-04-29T13:35:00.643Z,4.80
2018-04-29T13:37:29.596Z,4.87
2018-04-29T13:39:57.237Z,5.50
2018-04-29T13:45:28.080Z,5.27
2018-04-29T14:01:17.683Z,4.30
2018-04-29T14:03:45.214Z,4.80
2018-04-29T14:06:14.426Z,4.90
2018-04-29T14:08:42.753Z,4.97
2018-04-29T14:11:10.289Z,4.90
2018-04-29T14:13:37.833Z,4.70
2018-04-29T14:16:05.632Z,4.47
2018-04-29T14:18:33.943Z,4.25
2018-04-29T14:21:01.484Z,4.70
2018-04-29T14:23:30.106Z,5.03
2018-04-29T14:25:57.657Z,4.50
2018-04-29T14:28:26.062Z,5.70
2018-04-29T14:30:53.615Z,4.82
2018-04-29T14:33:21.139Z,5.50
2018-04-29T14:35:48.662Z,5.10
2018-04-29T14:38:17.320Z,4.97
2018-04-29T14:40:44.847Z,4.10
2018-04-29T14:43:12.833Z,5.40
2018-04-29T14:45:40.451Z,5.17
2018-04-29T14:48:08.737Z,5.10
2018-04-29T14:50:37.027Z,4.80
2018-04-29T14:53:04.760Z,4.30
2018-04-29T14:55:33.051Z,4.40
2018-04-29T14:58:01.340Z,4.87
2018-04-29T15:00:28.907Z,4.78
2018-04-29T15:02:56.421Z,6.73
2018-04-29T15:05:23.945Z,4.97
2018-04-29T15:07:52.091Z,5.00
2018-04-29T15:10:20.604Z,5.00
2018-04-29T15:12:49.017Z,5.30
2018-04-29T15:15:17.359Z,6.10
2018-04-29T15:17:45.754Z,4.27
2018-04-29T15:20:25.672Z,5.20
2018-04-29T15:26:57.322Z,4.47
2018-04-29T15:29:25.352Z,5.20
2018-04-29T15:31:53.304Z,5.83
2018-04-29T15:34:20.913Z,4.70
2018-04-29T15:36:48.443Z,5.13
2018-04-29T15:39:16.503Z,4.97
2018-04-29T15:41:44.186Z,4.83
2018-04-29T15:44:12.228Z,4.43
2018-04-29T15:46:39.808Z,4.30
2018-04-29T15:49:07.687Z,4.43
2018-04-29T15:51:35.213Z,6.10
2018-04-29T15:54:02.732Z,6.03
2018-04-29T15:56:30.288Z,5.35
2018-04-29T15:58:57.819Z,5.50
2018-04-29T16:01:25.414Z,5.10
2018-04-29T16:03:52.967Z,6.67
2018-04-29T16:06:20.500Z,4.90
2018-04-29T16:08:48.827Z,6.37
2018-04-29T16:11:16.475Z,5.00
2018-04-29T16:13:43.991Z,6.20
2018-04-29T16:16:11.518Z,5.37
2018-04-29T16:18:39.408Z,5.60
2018-04-29T16:21:09.254Z,5.13
2018-04-29T16:23:37.623Z,6.20
2018-04-29T16:26:05.952Z,5.80
2018-04-29T16:28:33.501Z,5.93
2018-04-29T16:31:01.020Z,5.10
2018-04-29T16:33:29.367Z,6.37
2018-04-29T16:35:56.879Z,4.77
2018-04-29T16:38:24.390Z,5.80
2018-04-29T16:40:51.940Z,5.57
2018-04-29T16:43:19.496Z,4.83
2018-04-29T16:45:47.686Z,5.30
2018-04-29T16:48:17.258Z,5.12
2018-04-29T16:50:44.786Z,5.20
2018-04-29T16:53:12.412Z,4.60
2018-04-29T16:55:40.466Z,5.70
2018-04-29T16:58:08.003Z,5.03
2018-04-29T17:00:35.538Z,5.10
2018-04-29T17:03:03.095Z,5.60
2018-04-29T17:05:31.399Z,5.93
2018-04-29T17:07:58.995Z,5.30
2018-04-29T17:10:27.359Z,5.03
2018-04-29T17:12:54.896Z,6.07
2018-04-29T17:15:22.424Z,5.00
2018-04-29T17:17:50.449Z,5.00
2018-04-29T17:20:18.766Z,6.07
2018-04-29T17:22:46.408Z,6.37
2018-04-29T17:25:26.502Z,6.15
2018-04-29T17:31:10.131Z,5.83
2018-04-29T17:33:37.707Z,5.43
2018-04-29T17:36:05.249Z,4.70
2018-04-29T17:38:33.387Z,5.45
2018-04-29T17:41:00.905Z,5.00
2018-04-29T17:43:28.436Z,5.47
2018-04-29T17:45:57.794Z,6.20
2018-04-29T17:48:25.334Z,5.07
2018-04-29T17:50:52.875Z,5.63
2018-04-29T17:53:20.439Z,5.12
2018-04-29T17:55:47.970Z,4.80
2018-04-29T17:58:15.613Z,6.12
2018-04-29T18:00:43.551Z,5.20
2018-04-29T18:03:11.092Z,5.70
2018-04-29T18:05:38.633Z,5.10
2018-04-29T18:08:06.208Z,5.30
2018-04-29T18:13:09.553Z,6.20
2018-04-29T18:18:17.116Z,5.60
2018-04-29T18:21:15.781Z,6.13
2018-04-29T18:23:44.272Z,5.03
2018-04-29T18:26:11.909Z,5.63
2018-04-29T18:28:39.503Z,5.20
2018-04-29T18:31:07.071Z,5.33
2018-04-29T18:33:34.614Z,5.17
2018-04-29T18:36:02.227Z,5.80
2018-04-29T18:52:25.127Z,6.37
2018-04-29T18:54:52.682Z,6.13
2018-04-29T18:57:20.225Z,5.18
2018-04-29T18:59:48.660Z,5.60
2018-04-29T19:02:16.809Z,5.60
2018-04-29T19:04:54.052Z,7.63
2018-04-29T19:07:28.411Z,7.62
2018-04-29T19:09:56.072Z,6.00
2018-04-29T19:12:23.603Z,5.47
2018-04-29T19:15:06.021Z,8.07
2018-04-29T19:17:35.334Z,7.07
2018-04-29T19:20:02.962Z,5.90
2018-04-29T19:22:30.548Z,6.18
2018-04-29T19:24:58.074Z,5.53
2018-04-29T19:27:25.804Z,6.27
2018-04-29T19:29:54.275Z,5.67
2018-04-29T19:32:21.815Z,6.50
2018-04-29T19:34:49.378Z,6.97
2018-04-29T19:37:17.451Z,6.50
2018-04-29T19:39:45.097Z,6.30
2018-04-29T19:42:12.693Z,5.10
2018-04-29T19:44:40.255Z,5.40
2018-04-29T19:47:07.810Z,5.57
2018-04-29T19:49:35.347Z,5.53
2018-04-29T19:52:03.092Z,5.30
2018-04-29T19:54:31.032Z,6.30
2018-04-29T19:56:58.550Z,6.00
2018-04-29T19:59:26.318Z,6.07
2018-04-29T20:01:53.847Z,6.67
2018-04-29T20:04:21.391Z,6.80
2018-04-29T20:06:48.958Z,7.23
2018-04-29T20:09:16.503Z,5.93
2018-04-29T20:11:45.062Z,6.30
2018-04-29T20:14:12.647Z,6.35
2018-04-29T20:16:40.932Z,5.83
2018-04-29T20:19:08.623Z,6.70
2018-04-29T20:21:36.268Z,6.60
2018-04-29T20:24:04.089Z,5.73
2018-04-29T20:26:31.785Z,6.03
2018-04-29T20:28:59.600Z,5.70
2018-04-29T20:31:28.470Z,6.47
2018-04-29T20:33:56.047Z,6.20
2018-04-29T20:36:23.670Z,6.22
2018-04-29T20:38:51.349Z,6.67
2018-04-29T20:41:19.125Z,7.07
2018-04-29T20:43:48.300Z,6.27
2018-04-29T20:46:17.699Z,5.98
2018-04-29T20:48:45.239Z,6.80
2018-04-29T20:51:14.762Z,6.67
2018-04-29T20:53:42.432Z,6.33
2018-04-29T20:56:11.198Z,6.37
2018-04-29T20:58:38.861Z,6.10
2018-04-29T21:01:06.722Z,5.93
2018-04-29T21:03:34.302Z,6.00
2018-04-29T21:06:02.666Z,5.63
2018-04-29T21:08:30.245Z,6.43
2018-04-29T21:10:57.851Z,6.97
2018-04-29T21:13:25.412Z,5.43
2018-04-29T21:15:53.771Z,5.57
2018-04-29T21:18:21.311Z,5.65
2018-04-29T21:20:49.035Z,6.23
2018-04-29T21:23:16.781Z,6.20
2018-04-29T21:25:44.354Z,5.70
2018-04-29T21:28:11.957Z,6.47
2018-04-29T21:30:39.584Z,6.25
2018-04-29T21:33:07.265Z,6.80
2018-04-29T21:35:34.870Z,7.60
2018-04-29T21:38:02.446Z,6.27
2018-04-29T21:40:30.983Z,6.75
2018-04-29T21:42:58.595Z,6.05
2018-04-29T21:45:26.363Z,6.65
2018-04-29T21:47:53.937Z,7.00
2018-04-29T21:50:22.191Z,6.97
2018-04-29T21:52:50.502Z,6.43
2018-04-29T21:55:18.048Z,6.70
2018-04-29T21:57:46.203Z,6.67
2018-04-29T22:00:14.864Z,6.83
2018-04-29T22:02:42.422Z,5.95
2018-04-29T22:05:09.987Z,6.93
2018-04-29T22:07:37.646Z,7.70
2018-04-29T22:10:05.186Z,7.20
2018-04-29T22:12:32.818Z,6.03
2018-04-29T22:15:00.343Z,5.80
2018-04-29T22:17:28.631Z,6.63
2018-04-29T22:19:56.963Z,6.50
2018-04-29T22:22:24.478Z,5.68
2018-04-29T22:24:52.008Z,6.20
2018-04-29T22:27:20.321Z,6.47
2018-04-29T22:29:47.843Z,5.83
2018-04-29T22:32:17.265Z,6.10
2018-04-29T22:34:45.355Z,7.03
2018-04-29T22:37:14.671Z,7.10
2018-04-29T22:39:42.911Z,6.20
2018-04-29T22:42:10.489Z,6.67
2018-04-29T22:44:38.026Z,6.53
2018-04-29T22:47:05.557Z,6.55
2018-04-29T22:49:33.118Z,6.80
2018-04-29T22:52:00.687Z,6.87
2018-04-29T22:54:28.980Z,6.50
2018-04-29T22:56:56.670Z,6.95
2018-04-29T22:59:24.845Z,6.23
2018-04-29T23:01:52.499Z,6.30
2018-04-29T23:04:20.047Z,6.80
2018-04-29T23:06:47.571Z,7.07
2018-04-29T23:09:15.494Z,6.68
2018-04-29T23:11:43.044Z,6.87
2018-04-29T23:14:10.564Z,6.93
2018-04-29T23:16:38.876Z,6.83
2018-04-29T23:19:06.474Z,7.47
2018-04-29T23:21:33.996Z,6.77
2018-04-29T23:24:01.538Z,6.68
2018-04-29T23:26:29.131Z,7.43
2018-04-29T23:28:56.662Z,7.60
2018-04-29T23:31:24.184Z,5.93
2018-04-29T23:33:51.748Z,7.17
2018-04-29T23:36:19.302Z,7.23
2018-04-29T23:38:46.820Z,7.93
2018-04-29T23:41:27.113Z,8.07
2018-04-29T23:46:39.317Z,7.37
2018-04-29T23:49:06.842Z,7.90
2018-04-29T23:51:34.363Z,7.13
2018-04-29T23:54:01.924Z,7.90
2018-04-29T23:56:30.223Z,8.23
2018-04-29T23:58:57.755Z,8.50
